createdAt,value
2018-03-17T00:00:17.097Z,98970.36
2018-03-17T00:02:44.627Z,98972.47
2018-03-17T00:05:12.140Z,98972.69
2018-03-17T00:07:39.689Z,98969.65
2018-03-17T00:10:07.435Z,98973.86
2018-03-17T00:12:34.926Z,98965.88
2018-03-17T00:15:02.440Z,98974.16
2018-03-17T00:17:30.702Z,98978.89
2018-03-17T00:19:58.633Z,98972.34
2018-03-17T00:22:26.939Z,98974.16
2018-03-17T00:24:55.618Z,98976.37
2018-03-17T00:27:23.160Z,98978.02
2018-03-17T00:29:50.623Z,98975.11
2018-03-17T00:32:18.963Z,98976.80
2018-03-17T00:34:47.105Z,98982.84
2018-03-17T00:37:14.587Z,98982.41
2018-03-17T00:39:42.051Z,98982.41
2018-03-17T00:42:10.003Z,98980.52
2018-03-17T00:44:37.508Z,98981.63
2018-03-17T00:47:05.015Z,98981.77
2018-03-17T00:49:32.508Z,98978.41
2018-03-17T00:52:00.060Z,98992.97
2018-03-17T00:54:27.804Z,98977.98
2018-03-17T00:56:56.123Z,98979.67
2018-03-17T00:59:23.615Z,98978.61
2018-03-17T01:01:51.108Z,98977.06
2018-03-17T01:04:19.031Z,98980.85
2018-03-17T01:06:46.592Z,98971.69
2018-03-17T01:09:14.150Z,98974.72
2018-03-17T01:11:41.651Z,98977.40
2018-03-17T01:14:09.560Z,98977.41
2018-03-17T01:16:37.075Z,98987.82
2018-03-17T01:19:04.684Z,98989.19
2018-03-17T01:21:32.166Z,98986.42
2018-03-17T01:24:00.650Z,98984.88
2018-03-17T01:26:28.200Z,98982.75
2018-03-17T01:28:55.675Z,98981.49
2018-03-17T01:31:24.069Z,98983.47
2018-03-17T01:33:51.551Z,98978.46
2018-03-17T01:36:19.104Z,98964.72
2018-03-17T01:38:46.627Z,98964.02
2018-03-17T01:41:14.188Z,98970.95
2018-03-17T01:43:41.698Z,98971.43
2018-03-17T01:46:09.262Z,98965.70
2018-03-17T01:48:36.980Z,98961.34
2018-03-17T01:51:04.439Z,98957.50
2018-03-17T01:53:32.280Z,98962.68
2018-03-17T01:55:59.840Z,98963.78
2018-03-17T01:58:27.351Z,98961.32
2018-03-17T02:00:55.692Z,98958.20
2018-03-17T02:03:23.413Z,98954.73
2018-03-17T02:05:50.919Z,98957.48
2018-03-17T02:08:18.945Z,98951.07
2018-03-17T02:10:46.735Z,98951.94
2018-03-17T02:13:14.215Z,98954.41
2018-03-17T02:15:41.699Z,98955.50
2018-03-17T02:18:09.449Z,98958.52
2018-03-17T02:20:36.960Z,98953.99
2018-03-17T02:23:04.471Z,98952.07
2018-03-17T02:25:31.961Z,98956.25
2018-03-17T02:27:59.442Z,98942.92
2018-03-17T02:30:27.182Z,98944.63
2018-03-17T02:32:54.931Z,98946.38
2018-03-17T02:35:22.442Z,98951.02
2018-03-17T02:37:50.323Z,98938.26
2018-03-17T02:40:17.812Z,98941.17
2018-03-17T02:42:45.301Z,98931.92
2018-03-17T02:45:12.784Z,98934.31
2018-03-17T02:47:40.332Z,98933.02
2018-03-17T02:50:07.863Z,98942.31
2018-03-17T02:52:35.807Z,98932.27
2018-03-17T02:55:03.288Z,98933.02
2018-03-17T02:57:31.653Z,98936.41
2018-03-17T03:00:00.550Z,98936.55
2018-03-17T03:02:28.023Z,98935.94
2018-03-17T03:04:55.584Z,98943.27
2018-03-17T03:07:23.084Z,98943.72
2018-03-17T03:09:50.959Z,98939.53
2018-03-17T03:12:18.452Z,98939.16
2018-03-17T03:14:46.008Z,98944.88
2018-03-17T03:17:13.468Z,98941.20
2018-03-17T03:19:41.039Z,98935.11
2018-03-17T03:22:08.545Z,98937.78
2018-03-17T03:24:36.939Z,98938.31
2018-03-17T03:27:04.424Z,98943.42
2018-03-17T03:29:31.963Z,98939.14
2018-03-17T03:31:59.463Z,98939.08
2018-03-17T03:34:27.007Z,98941.17
2018-03-17T03:36:54.481Z,98939.09
2018-03-17T03:39:22.015Z,98938.91
2018-03-17T03:41:49.719Z,98943.01
2018-03-17T03:44:18.171Z,98938.17
2018-03-17T03:46:46.076Z,98941.16
2018-03-17T03:49:13.847Z,98945.44
2018-03-17T03:51:41.332Z,98946.52
2018-03-17T03:54:09.048Z,98937.29
2018-03-17T03:56:36.583Z,98938.05
2018-03-17T03:59:04.061Z,98944.11
2018-03-17T04:01:31.952Z,98939.30
2018-03-17T04:03:59.828Z,98937.94
2018-03-17T04:06:27.586Z,98946.06
2018-03-17T04:08:55.112Z,98939.74
2018-03-17T04:11:22.592Z,98939.63
2018-03-17T04:13:50.106Z,98941.39
2018-03-17T04:16:17.615Z,98945.25
2018-03-17T04:18:45.120Z,98934.30
2018-03-17T04:21:13.365Z,98928.02
2018-03-17T04:23:41.059Z,98928.64
2018-03-17T04:26:08.543Z,98930.16
2018-03-17T04:28:36.268Z,98931.75
2018-03-17T04:31:03.804Z,98937.30
2018-03-17T04:33:31.572Z,98939.16
2018-03-17T04:35:59.306Z,98925.06
2018-03-17T04:38:27.231Z,98927.37
2018-03-17T04:40:54.796Z,98928.70
2018-03-17T04:43:22.291Z,98924.83
2018-03-17T04:45:49.792Z,98925.64
2018-03-17T04:48:17.528Z,98927.11
2018-03-17T04:50:47.442Z,98921.95
2018-03-17T04:53:15.139Z,98919.11
2018-03-17T04:55:42.615Z,98923.70
2018-03-17T04:58:10.071Z,98927.98
2018-03-17T05:00:37.771Z,98930.24
2018-03-17T05:03:05.235Z,98932.84
2018-03-17T05:05:32.727Z,98930.40
2018-03-17T05:08:00.194Z,98916.72
2018-03-17T05:10:27.985Z,98926.31
2018-03-17T05:12:55.755Z,98925.95
2018-03-17T05:15:23.332Z,98929.14
2018-03-17T05:17:51.226Z,98929.89
2018-03-17T05:20:18.932Z,98928.70
2018-03-17T05:22:46.455Z,98921.95
2018-03-17T05:25:13.934Z,98926.47
2018-03-17T05:27:41.441Z,98933.45
2018-03-17T05:30:09.636Z,98931.38
2018-03-17T05:32:37.996Z,98933.55
2018-03-17T05:35:05.524Z,98918.28
2018-03-17T05:37:33.281Z,98921.23
2018-03-17T05:40:00.736Z,98925.39
2018-03-17T05:42:29.334Z,98924.16
2018-03-17T05:44:56.845Z,98926.73
2018-03-17T05:47:25.640Z,98929.98
2018-03-17T05:49:53.335Z,98929.45
2018-03-17T05:52:20.864Z,98939.08
2018-03-17T05:54:48.783Z,98936.99
2018-03-17T05:57:16.341Z,98927.96
2018-03-17T05:59:43.812Z,98918.64
2018-03-17T06:02:11.299Z,98919.11
2018-03-17T06:04:38.756Z,98917.61
2018-03-17T06:07:06.407Z,98914.89
2018-03-17T06:09:33.864Z,98911.09
2018-03-17T06:12:03.007Z,98915.12
2018-03-17T06:14:30.694Z,98916.55
2018-03-17T06:16:58.226Z,98910.51
2018-03-17T06:19:25.683Z,98906.52
2018-03-17T06:21:53.445Z,98900.55
2018-03-17T06:24:20.954Z,98902.21
2018-03-17T06:26:49.725Z,98904.37
2018-03-17T06:29:17.187Z,98911.55
2018-03-17T06:31:44.706Z,98903.34
2018-03-17T06:34:12.230Z,98900.55
2018-03-17T06:36:39.719Z,98900.44
2018-03-17T06:39:07.503Z,98905.29
2018-03-17T06:41:35.413Z,98904.11
2018-03-17T06:44:03.667Z,98899.49
2018-03-17T06:46:33.097Z,98909.61
2018-03-17T06:49:01.436Z,98910.78
2018-03-17T06:51:28.919Z,98917.72
2018-03-17T06:53:56.380Z,98908.41
2018-03-17T06:56:23.860Z,98913.62
2018-03-17T06:58:51.326Z,98912.70
2018-03-17T07:01:18.807Z,98912.19
2018-03-17T07:03:46.275Z,98906.48
2018-03-17T07:06:13.959Z,98905.61
2018-03-17T07:08:41.468Z,98907.70
2018-03-17T07:11:08.959Z,98910.50
2018-03-17T07:13:36.445Z,98917.87
2018-03-17T07:16:04.439Z,98923.64
2018-03-17T07:18:31.923Z,98918.13
2018-03-17T07:20:59.399Z,98918.02
2018-03-17T07:23:26.879Z,98921.38
2018-03-17T07:25:54.345Z,98922.44
2018-03-17T07:28:21.828Z,98922.53
2018-03-17T07:30:49.314Z,98925.84
2018-03-17T07:33:16.810Z,98925.19
2018-03-17T07:35:44.271Z,98927.85
2018-03-17T07:38:11.746Z,98935.53
2018-03-17T07:40:39.206Z,98935.67
2018-03-17T07:43:06.705Z,98933.10
2018-03-17T07:45:34.164Z,98931.20
2018-03-17T07:48:01.656Z,98937.52
2018-03-17T07:50:29.119Z,98936.71
2018-03-17T07:52:56.631Z,98927.30
2018-03-17T07:55:24.152Z,98928.19
2018-03-17T07:57:52.438Z,98932.58
2018-03-17T08:00:19.906Z,98940.58
2018-03-17T08:02:47.398Z,98937.63
2018-03-17T08:05:14.859Z,98934.45
2018-03-17T08:07:42.347Z,98939.56
2018-03-17T08:10:09.808Z,98927.84
2018-03-17T08:12:37.294Z,98934.37
2018-03-17T08:15:04.860Z,98932.63
2018-03-17T08:17:32.344Z,98935.45
2018-03-17T08:19:59.816Z,98927.02
2018-03-17T08:22:27.336Z,98926.22
2018-03-17T08:24:54.789Z,98926.16
2018-03-17T08:27:22.247Z,98920.56
2018-03-17T08:29:49.733Z,98921.82
2018-03-17T08:32:17.204Z,98929.96
2018-03-17T08:34:44.687Z,98929.30
2018-03-17T08:37:12.160Z,98920.99
2018-03-17T08:39:39.635Z,98926.02
2018-03-17T08:42:07.095Z,98929.28
2018-03-17T08:44:34.583Z,98931.93
2018-03-17T08:47:02.052Z,98927.28
2018-03-17T08:49:29.539Z,98934.22
2018-03-17T08:51:56.999Z,98931.05
2018-03-17T08:54:24.463Z,98929.20
2018-03-17T08:56:51.916Z,98920.52
2018-03-17T08:59:19.395Z,98924.72
2018-03-17T09:01:46.847Z,98915.43
2018-03-17T09:04:14.323Z,98933.31
2018-03-17T09:06:41.779Z,98931.63
2018-03-17T09:09:09.256Z,98927.27
2018-03-17T09:11:36.711Z,98926.07
2018-03-17T09:14:04.211Z,98923.62
2018-03-17T09:16:31.668Z,98933.88
2018-03-17T09:18:59.159Z,98928.80
2018-03-17T09:21:26.619Z,98927.11
2018-03-17T09:23:54.091Z,98919.55
2018-03-17T09:26:22.053Z,98917.00
2018-03-17T09:28:49.554Z,98921.17
2018-03-17T09:31:17.492Z,98926.80
2018-03-17T09:33:44.969Z,98927.35
2018-03-17T09:36:12.451Z,98917.78
2018-03-17T09:38:39.927Z,98923.09
2018-03-17T09:41:07.435Z,98923.94
2018-03-17T09:43:34.887Z,98920.38
2018-03-17T09:46:02.351Z,98925.23
2018-03-17T09:48:29.849Z,98930.06
2018-03-17T09:50:57.312Z,98922.27
2018-03-17T09:53:24.780Z,98929.52
2018-03-17T09:55:52.260Z,98927.19
2018-03-17T09:58:19.758Z,98925.95
2018-03-17T10:00:47.970Z,98922.70
2018-03-17T10:03:15.471Z,98929.23
2018-03-17T10:05:42.957Z,98930.16
2018-03-17T10:08:10.416Z,98934.06
2018-03-17T10:10:38.220Z,98926.83
2018-03-17T10:13:05.731Z,98923.12
2018-03-17T10:15:33.269Z,98922.46
2018-03-17T10:18:00.744Z,98936.80
2018-03-17T10:20:28.922Z,98929.85
2018-03-17T10:22:56.395Z,98938.06
2018-03-17T10:25:23.876Z,98932.45
2018-03-17T10:27:51.852Z,98928.78
2018-03-17T10:30:19.644Z,98932.79
2018-03-17T10:32:47.946Z,98924.70
2018-03-17T10:35:18.479Z,98927.31
2018-03-17T10:37:46.205Z,98927.55
2018-03-17T10:40:13.687Z,98924.97
2018-03-17T10:42:43.697Z,98922.61
2018-03-17T10:45:12.251Z,98926.90
2018-03-17T10:47:39.964Z,98929.73
2018-03-17T10:50:07.624Z,98932.97
2018-03-17T10:52:36.331Z,98926.80
2018-03-17T10:55:03.847Z,98929.03
2018-03-17T10:57:32.151Z,98925.38
2018-03-17T10:59:59.774Z,98919.14
2018-03-17T11:02:48.486Z,98915.53
2018-03-17T11:05:15.987Z,98911.53
2018-03-17T11:07:44.541Z,98911.35
2018-03-17T11:10:12.322Z,98914.36
2018-03-17T11:12:39.781Z,98912.09
2018-03-17T11:15:07.688Z,98918.95
2018-03-17T11:17:37.264Z,98919.28
2018-03-17T11:20:04.808Z,98918.11
2018-03-17T11:22:32.260Z,98916.13
2018-03-17T11:24:59.743Z,98910.94
2018-03-17T11:27:27.285Z,98908.78
2018-03-17T11:29:54.809Z,98911.16
2018-03-17T11:32:22.483Z,98910.09
2018-03-17T11:34:50.396Z,98919.13
2018-03-17T11:37:20.813Z,98923.47
2018-03-17T11:39:48.303Z,98928.30
2018-03-17T11:42:15.824Z,98933.50
2018-03-17T11:44:43.287Z,98939.08
2018-03-17T11:47:13.166Z,98939.08
2018-03-17T11:49:41.761Z,98927.98
2018-03-17T11:52:10.047Z,98932.06
2018-03-17T11:54:37.575Z,98918.02
2018-03-17T11:57:05.061Z,98917.14
2018-03-17T11:59:32.753Z,98923.05
2018-03-17T12:02:00.250Z,98917.28
2018-03-17T12:04:27.981Z,98924.47
2018-03-17T12:07:00.660Z,98922.95
2018-03-17T12:09:28.124Z,98921.78
2018-03-17T12:11:55.599Z,98918.72
2018-03-17T12:14:25.128Z,98914.27
2018-03-17T12:16:54.792Z,98917.14
2018-03-17T12:19:22.252Z,98906.21
2018-03-17T12:21:49.716Z,98909.02
2018-03-17T12:35:47.646Z,98897.23
2018-03-17T12:38:15.112Z,98899.27
2018-03-17T12:40:42.660Z,98893.94
2018-03-17T12:43:11.383Z,98901.40
2018-03-17T12:45:38.867Z,98893.72
2018-03-17T12:48:06.320Z,98900.94
2018-03-17T12:50:33.771Z,98903.77
2018-03-17T12:53:01.243Z,98900.75
2018-03-17T12:55:28.704Z,98906.16
2018-03-17T12:57:56.191Z,98905.16
2018-03-17T13:00:23.649Z,98900.73
2018-03-17T13:02:51.119Z,98910.48
2018-03-17T13:05:18.582Z,98906.41
2018-03-17T13:07:46.070Z,98901.72
2018-03-17T13:10:13.535Z,98906.26
2018-03-17T13:12:41.027Z,98906.72
2018-03-17T13:15:08.483Z,98901.86
2018-03-17T13:17:35.960Z,98899.89
2018-03-17T13:20:03.438Z,98903.34
2018-03-17T13:22:42.712Z,98894.77
2018-03-17T13:25:10.172Z,98905.85
2018-03-17T13:27:49.329Z,98905.17
2018-03-17T13:30:16.788Z,98896.34
2018-03-17T13:32:52.715Z,98898.88
2018-03-17T13:35:20.182Z,98899.48
2018-03-17T13:37:47.668Z,98892.14
2018-03-17T13:40:26.988Z,98898.61
2018-03-17T13:42:54.468Z,98902.05
2018-03-17T13:45:21.948Z,98905.27
2018-03-17T13:47:49.425Z,98895.66
2018-03-17T13:50:16.880Z,98898.34
2018-03-17T13:52:44.356Z,98905.34
2018-03-17T13:55:11.811Z,98898.70
2018-03-17T13:57:39.283Z,98894.77
2018-03-17T14:00:06.743Z,98897.00
2018-03-17T14:02:34.228Z,98900.34
2018-03-17T14:05:01.683Z,98901.19
2018-03-17T14:07:29.164Z,98904.78
2018-03-17T14:09:56.643Z,98901.52
2018-03-17T14:12:24.111Z,98894.92
2018-03-17T14:14:51.569Z,98896.28
2018-03-17T14:17:19.044Z,98908.34
2018-03-17T14:19:46.581Z,98906.98
2018-03-17T14:22:14.067Z,98909.39
2018-03-17T14:24:41.531Z,98905.08
2018-03-17T14:27:08.997Z,98903.08
2018-03-17T14:29:36.481Z,98908.56
2018-03-17T14:32:03.988Z,98906.83
2018-03-17T14:34:31.436Z,98901.60
2018-03-17T14:36:58.893Z,98905.39
2018-03-17T14:39:26.370Z,98894.20
2018-03-17T14:41:53.835Z,98907.45
2018-03-17T14:44:21.315Z,98899.20
2018-03-17T14:46:48.826Z,98890.25
2018-03-17T14:49:16.303Z,98891.03
2018-03-17T14:51:43.783Z,98882.89
2018-03-17T14:54:11.264Z,98886.11
2018-03-17T14:56:38.720Z,98891.09
2018-03-17T14:59:06.212Z,98888.92
2018-03-17T15:01:33.679Z,98897.20
2018-03-17T15:04:01.159Z,98903.26
2018-03-17T15:06:28.622Z,98899.46
2018-03-17T15:08:56.110Z,98903.64
2018-03-17T15:11:23.583Z,98892.02
2018-03-17T15:13:51.054Z,98896.22
2018-03-17T15:16:18.514Z,98903.22
2018-03-17T15:18:46.393Z,98892.28
2018-03-17T15:21:13.937Z,98908.80
2018-03-17T15:23:41.444Z,98894.27
2018-03-17T15:26:10.027Z,98903.22
2018-03-17T15:28:38.425Z,98905.02
2018-03-17T15:31:05.945Z,98905.47
2018-03-17T15:33:33.428Z,98897.59
2018-03-17T15:36:00.959Z,98894.66
2018-03-17T15:38:28.502Z,98901.22
2018-03-17T15:40:56.105Z,98898.48
2018-03-17T15:43:25.315Z,98904.11
2018-03-17T15:45:53.143Z,98907.45
2018-03-17T15:48:20.626Z,98897.16
2018-03-17T15:50:48.527Z,98897.53
2018-03-17T15:53:16.004Z,98891.41
2018-03-17T15:55:44.563Z,98894.45
2018-03-17T15:58:12.043Z,98893.64
2018-03-17T16:00:39.519Z,98909.75
2018-03-17T16:03:07.064Z,98896.89
2018-03-17T16:05:36.628Z,98915.69
2018-03-17T16:08:04.128Z,98916.34
2018-03-17T16:10:31.623Z,98921.19
2018-03-17T16:12:59.094Z,98914.91
2018-03-17T16:15:26.607Z,98916.94
2018-03-17T16:17:54.066Z,98921.70
2018-03-17T16:20:21.556Z,98928.81
2018-03-17T16:22:50.503Z,98924.95
2018-03-17T16:25:18.096Z,98920.13
2018-03-17T16:27:52.148Z,98928.41
2018-03-17T16:30:19.656Z,98934.87
2018-03-17T16:32:47.121Z,98945.11
2018-03-17T16:35:14.625Z,98949.23
2018-03-17T16:37:42.229Z,98950.38
2018-03-17T16:40:13.939Z,98945.72
2018-03-17T16:42:41.756Z,98950.41
2018-03-17T16:45:09.236Z,98953.11
2018-03-17T16:47:36.699Z,98955.13
2018-03-17T16:50:04.215Z,98938.08
2018-03-17T16:52:32.708Z,98958.21
2018-03-17T16:55:00.539Z,98959.86
2018-03-17T16:57:28.345Z,98956.05
2018-03-17T16:59:56.245Z,98959.44
2018-03-17T17:02:24.008Z,98966.73
2018-03-17T17:04:53.112Z,98966.16
2018-03-17T17:07:21.648Z,98971.23
2018-03-17T17:09:50.198Z,98983.44
2018-03-17T17:12:17.960Z,98983.19
2018-03-17T17:14:46.623Z,98986.80
2018-03-17T17:17:14.852Z,98981.30
2018-03-17T17:19:43.558Z,98986.80
2018-03-17T17:22:12.288Z,98988.73
2018-03-17T17:24:40.985Z,98988.03
2018-03-17T17:27:09.751Z,98987.20
2018-03-17T17:29:38.423Z,98998.27
2018-03-17T17:32:06.289Z,98994.16
2018-03-17T17:34:34.299Z,99000.47
2018-03-17T17:37:01.781Z,99000.01
2018-03-17T17:39:29.259Z,99003.52
2018-03-17T17:41:56.751Z,98991.95
2018-03-17T17:44:24.208Z,98993.55
2018-03-17T17:46:51.724Z,99002.89
2018-03-17T17:49:20.203Z,98994.30
2018-03-17T17:51:47.684Z,98997.05
2018-03-17T17:54:16.765Z,99000.45
2018-03-17T17:56:47.748Z,99009.16
2018-03-17T17:59:15.224Z,99003.13
2018-03-17T18:01:42.742Z,99010.20
2018-03-17T18:04:13.402Z,99002.50
2018-03-17T18:06:41.176Z,99005.97
2018-03-17T18:09:08.645Z,98999.42
2018-03-17T18:11:36.138Z,99010.38
2018-03-17T18:14:03.595Z,99005.26
2018-03-17T18:16:31.071Z,99006.02
2018-03-17T18:18:58.536Z,99003.73
2018-03-17T18:21:31.245Z,99005.06
2018-03-17T18:23:58.710Z,99012.88
2018-03-17T18:26:29.672Z,99017.47
2018-03-17T18:28:57.134Z,99015.44
2018-03-17T18:31:32.218Z,99012.98
2018-03-17T18:37:11.434Z,99014.80
2018-03-17T18:39:40.587Z,99024.34
2018-03-17T18:42:09.128Z,99024.85
2018-03-17T18:44:45.005Z,99018.00
2018-03-17T18:47:12.500Z,99026.20
2018-03-17T18:49:39.955Z,99031.62
2018-03-17T18:52:07.439Z,99029.16
2018-03-17T18:54:34.907Z,99022.60
2018-03-17T18:57:02.391Z,99028.05
2018-03-17T18:59:29.861Z,99025.27
2018-03-17T19:01:57.349Z,99022.52
2018-03-17T19:04:24.814Z,99034.28
2018-03-17T19:06:52.299Z,99029.98
2018-03-17T19:09:19.775Z,99024.06
2018-03-17T19:11:47.270Z,99037.77
2018-03-17T19:14:14.727Z,99040.02
2018-03-17T19:16:42.209Z,99033.05
2018-03-17T19:19:09.785Z,99038.29
2018-03-17T19:21:37.339Z,99041.25
2018-03-17T19:24:04.803Z,99050.24
2018-03-17T19:26:32.295Z,99043.52
2018-03-17T19:28:59.769Z,99054.16
2018-03-17T19:31:27.288Z,99054.86
2018-03-17T19:33:54.787Z,99057.53
2018-03-17T19:36:22.249Z,99054.33
2018-03-17T19:38:49.723Z,99057.82
2018-03-17T19:41:17.192Z,99056.81
2018-03-17T19:43:44.673Z,99069.89
2018-03-17T19:46:12.139Z,99069.70
2018-03-17T19:48:39.624Z,99055.90
2018-03-17T19:51:07.084Z,99068.48
2018-03-17T19:53:34.562Z,99065.09
2018-03-17T19:56:03.051Z,99063.64
2018-03-17T19:58:30.532Z,99066.13
2018-03-17T20:00:57.997Z,99066.44
2018-03-17T20:03:25.503Z,99068.97
2018-03-17T20:05:53.433Z,99069.38
2018-03-17T20:08:20.920Z,99075.00
2018-03-17T20:10:48.392Z,99065.19
2018-03-17T20:13:15.869Z,99070.60
2018-03-17T20:15:43.351Z,99068.58
2018-03-17T20:18:10.835Z,99063.75
2018-03-17T20:20:38.312Z,99071.33
2018-03-17T20:23:05.797Z,99072.58
2018-03-17T20:25:33.265Z,99079.94
2018-03-17T20:28:00.751Z,99085.03
2018-03-17T20:30:28.239Z,99079.94
2018-03-17T20:32:55.720Z,99082.07
2018-03-17T20:35:23.178Z,99086.98
2018-03-17T20:37:50.661Z,99091.28
2018-03-17T20:40:18.128Z,99092.71
2018-03-17T20:42:45.618Z,99094.56
2018-03-17T20:45:13.077Z,99098.85
2018-03-17T20:47:40.576Z,99095.69
2018-03-17T20:50:08.037Z,99087.20
2018-03-17T20:52:36.378Z,99080.14
2018-03-17T20:55:03.870Z,99095.17
2018-03-17T20:57:31.355Z,99096.50
2018-03-17T20:59:58.840Z,99102.64
2018-03-17T21:02:26.301Z,99098.97
2018-03-17T21:04:53.901Z,99102.94
2018-03-17T21:07:21.359Z,99105.72
2018-03-17T21:09:48.857Z,99106.74
2018-03-17T21:12:16.315Z,99095.59
2018-03-17T21:14:43.800Z,99095.48
2018-03-17T21:17:11.272Z,99099.97
2018-03-17T21:19:38.767Z,99101.13
2018-03-17T21:22:06.236Z,99096.51
2018-03-17T21:24:33.731Z,99095.28
2018-03-17T21:27:01.228Z,99096.30
2018-03-17T21:29:28.707Z,99093.23
2018-03-17T21:31:56.176Z,99100.38
2018-03-17T21:34:23.713Z,99092.11
2018-03-17T21:36:51.196Z,99092.52
2018-03-17T21:39:18.664Z,99102.13
2018-03-17T21:41:46.172Z,99096.71
2018-03-17T21:44:13.632Z,99096.20
2018-03-17T21:46:41.125Z,99088.92
2018-03-17T21:49:08.586Z,99093.84
2018-03-17T21:51:36.078Z,99097.12
2018-03-17T21:54:03.558Z,99100.08
2018-03-17T21:56:31.043Z,99097.02
2018-03-17T21:58:58.508Z,99095.17
2018-03-17T22:01:25.995Z,99107.03
2018-03-17T22:03:53.463Z,99106.93
2018-03-17T22:06:20.960Z,99101.42
2018-03-17T22:08:48.420Z,99099.48
2018-03-17T22:11:15.917Z,99083.31
2018-03-17T22:13:44.392Z,99089.25
2018-03-17T22:16:11.903Z,99096.83
2018-03-17T22:18:39.424Z,99088.41
2018-03-17T22:21:06.883Z,99095.27
2018-03-17T22:23:34.377Z,99096.61
2018-03-17T22:26:01.895Z,99095.19
2018-03-17T22:28:29.372Z,99094.03
2018-03-17T22:30:56.840Z,99098.76
2018-03-17T22:33:24.327Z,99091.60
2018-03-17T22:35:51.787Z,99101.09
2018-03-17T22:38:19.276Z,99090.56
2018-03-17T22:40:46.736Z,99094.98
2018-03-17T22:43:14.231Z,99092.39
2018-03-17T22:45:41.728Z,99090.56
2018-03-17T22:48:09.221Z,99088.42
2018-03-17T22:50:36.687Z,99087.51
2018-03-17T22:53:04.180Z,99087.08
2018-03-17T22:55:31.643Z,99081.58
2018-03-17T22:58:00.006Z,99085.55
2018-03-17T23:00:27.469Z,99086.16
2018-03-17T23:02:54.966Z,99084.41
2018-03-17T23:05:22.427Z,99090.27
2018-03-17T23:07:49.956Z,99087.80
2018-03-17T23:10:17.428Z,99089.75
2018-03-17T23:12:44.921Z,99093.33
2018-03-17T23:15:12.387Z,99092.59
2018-03-17T23:17:39.883Z,99093.84
2018-03-17T23:20:07.360Z,99094.25
2018-03-17T23:22:34.876Z,99094.86
2018-03-17T23:25:02.342Z,99093.42
2018-03-17T23:27:29.840Z,99101.84
2018-03-17T23:29:57.305Z,99090.27
2018-03-17T23:32:24.803Z,99090.28
2018-03-17T23:34:52.298Z,99096.80
2018-03-17T23:37:19.760Z,99095.38
2018-03-17T23:39:47.272Z,99090.89
2018-03-17T23:42:14.732Z,99093.54
2018-03-17T23:44:43.385Z,99086.59
2018-03-17T23:47:10.871Z,99090.77
2018-03-17T23:49:38.385Z,99094.65
2018-03-17T23:52:05.852Z,99089.73
2018-03-17T23:54:33.343Z,99094.25
2018-03-17T23:57:00.813Z,99094.97
2018-03-17T23:59:28.302Z,99097.21
